sensor_id;sensor_type;location;lat;lon;timestamp;P1;durP1;ratioP1;P2;durP2;ratioP2
13708;SDS011;54933;51.908;7.730;2023-03-18T00:00:26;1.63;;;1.10;;
13708;SDS011;54933;51.908;7.730;2023-03-18T00:02:52;1.23;;;0.80;;
13708;SDS011;54933;51.908;7.730;2023-03-18T00:05:17;0.90;;;0.90;;
13708;SDS011;54933;51.908;7.730;2023-03-18T00:07:44;0.70;;;0.70;;
13708;SDS011;54933;51.908;7.730;2023-03-18T00:10:10;2.40;;;0.80;;
13708;SDS011;54933;51.908;7.730;2023-03-18T00:12:36;1.33;;;0.70;;
13708;SDS011;54933;51.908;7.730;2023-03-18T00:15:04;1.73;;;0.67;;
13708;SDS011;54933;51.908;7.730;2023-03-18T00:17:31;1.37;;;0.77;;
13708;SDS011;54933;51.908;7.730;2023-03-18T00:19:56;1.37;;;0.90;;
13708;SDS011;54933;51.908;7.730;2023-03-18T00:22:22;0.80;;;0.80;;
13708;SDS011;54933;51.908;7.730;2023-03-18T00:24:48;0.67;;;0.67;;
13708;SDS011;54933;51.908;7.730;2023-03-18T00:27:13;0.60;;;0.60;;
13708;SDS011;54933;51.908;7.730;2023-03-18T00:29:39;0.77;;;0.50;;
13708;SDS011;54933;51.908;7.730;2023-03-18T00:32:04;1.00;;;0.90;;
13708;SDS011;54933;51.908;7.730;2023-03-18T00:34:30;2.43;;;0.80;;
13708;SDS011;54933;51.908;7.730;2023-03-18T00:36:55;0.60;;;0.60;;
13708;SDS011;54933;51.908;7.730;2023-03-18T00:39:24;1.80;;;0.70;;
13708;SDS011;54933;51.908;7.730;2023-03-18T00:41:51;0.67;;;0.67;;
13708;SDS011;54933;51.908;7.730;2023-03-18T00:44:18;1.33;;;0.70;;
13708;SDS011;54933;51.908;7.730;2023-03-18T00:46:44;0.57;;;0.57;;
13708;SDS011;54933;51.908;7.730;2023-03-18T00:49:10;0.73;;;0.73;;
13708;SDS011;54933;51.908;7.730;2023-03-18T00:51:36;0.67;;;0.67;;
13708;SDS011;54933;51.908;7.730;2023-03-18T00:54:04;0.60;;;0.60;;
13708;SDS011;54933;51.908;7.730;2023-03-18T00:56:31;0.93;;;0.60;;
13708;SDS011;54933;51.908;7.730;2023-03-18T00:58:57;0.70;;;0.70;;
13708;SDS011;54933;51.908;7.730;2023-03-18T01:01:24;0.60;;;0.60;;
13708;SDS011;54933;51.908;7.730;2023-03-18T01:03:50;1.00;;;0.60;;
13708;SDS011;54933;51.908;7.730;2023-03-18T01:06:20;0.80;;;0.57;;
13708;SDS011;54933;51.908;7.730;2023-03-18T01:08:47;0.50;;;0.50;;
13708;SDS011;54933;51.908;7.730;2023-03-18T01:11:15;1.10;;;1.00;;
13708;SDS011;54933;51.908;7.730;2023-03-18T01:13:40;0.67;;;0.67;;
13708;SDS011;54933;51.908;7.730;2023-03-18T01:16:06;0.50;;;0.50;;
13708;SDS011;54933;51.908;7.730;2023-03-18T01:18:33;0.60;;;0.60;;
13708;SDS011;54933;51.908;7.730;2023-03-18T01:20:59;0.63;;;0.60;;
13708;SDS011;54933;51.908;7.730;2023-03-18T01:23:24;1.43;;;0.60;;
13708;SDS011;54933;51.908;7.730;2023-03-18T01:25:50;0.50;;;0.50;;
13708;SDS011;54933;51.908;7.730;2023-03-18T01:28:15;0.60;;;0.60;;
13708;SDS011;54933;51.908;7.730;2023-03-18T01:30:41;0.70;;;0.60;;
13708;SDS011;54933;51.908;7.730;2023-03-18T01:33:06;3.13;;;0.80;;
13708;SDS011;54933;51.908;7.730;2023-03-18T01:35:33;0.53;;;0.53;;
13708;SDS011;54933;51.908;7.730;2023-03-18T01:37:59;0.60;;;0.60;;
13708;SDS011;54933;51.908;7.730;2023-03-18T01:40:26;0.37;;;0.37;;
13708;SDS011;54933;51.908;7.730;2023-03-18T01:43:04;0.50;;;0.50;;
13708;SDS011;54933;51.908;7.730;2023-03-18T01:45:43;0.63;;;0.50;;
13708;SDS011;54933;51.908;7.730;2023-03-18T01:48:13;0.87;;;0.73;;
13708;SDS011;54933;51.908;7.730;2023-03-18T01:50:40;0.70;;;0.70;;
13708;SDS011;54933;51.908;7.730;2023-03-18T01:53:09;0.67;;;0.67;;
13708;SDS011;54933;51.908;7.730;2023-03-18T01:55:36;0.40;;;0.40;;
13708;SDS011;54933;51.908;7.730;2023-03-18T01:58:05;1.03;;;0.60;;
13708;SDS011;54933;51.908;7.730;2023-03-18T02:00:35;0.50;;;0.50;;
13708;SDS011;54933;51.908;7.730;2023-03-18T02:03:05;0.67;;;0.63;;
13708;SDS011;54933;51.908;7.730;2023-03-18T02:05:31;0.60;;;0.60;;
13708;SDS011;54933;51.908;7.730;2023-03-18T02:07:56;0.70;;;0.67;;
13708;SDS011;54933;51.908;7.730;2023-03-18T02:10:26;0.63;;;0.63;;
13708;SDS011;54933;51.908;7.730;2023-03-18T02:12:56;0.63;;;0.50;;
13708;SDS011;54933;51.908;7.730;2023-03-18T02:15:25;0.40;;;0.40;;
13708;SDS011;54933;51.908;7.730;2023-03-18T02:17:55;0.50;;;0.50;;
13708;SDS011;54933;51.908;7.730;2023-03-18T02:26:14;0.50;;;0.50;;
13708;SDS011;54933;51.908;7.730;2023-03-18T02:28:47;0.60;;;0.60;;
13708;SDS011;54933;51.908;7.730;2023-03-18T02:31:16;0.50;;;0.50;;
13708;SDS011;54933;51.908;7.730;2023-03-18T02:33:43;2.07;;;0.60;;
13708;SDS011;54933;51.908;7.730;2023-03-18T02:36:28;2.37;;;0.60;;
13708;SDS011;54933;51.908;7.730;2023-03-18T02:38:56;1.13;;;0.70;;
13708;SDS011;54933;51.908;7.730;2023-03-18T02:41:23;0.80;;;0.70;;
13708;SDS011;54933;51.908;7.730;2023-03-18T02:43:51;0.50;;;0.50;;
13708;SDS011;54933;51.908;7.730;2023-03-18T02:46:22;0.60;;;0.60;;
13708;SDS011;54933;51.908;7.730;2023-03-18T02:48:50;1.67;;;1.57;;
13708;SDS011;54933;51.908;7.730;2023-03-18T02:51:17;0.30;;;0.30;;
13708;SDS011;54933;51.908;7.730;2023-03-18T02:53:43;0.43;;;0.43;;
13708;SDS011;54933;51.908;7.730;2023-03-18T02:56:09;0.63;;;0.50;;
13708;SDS011;54933;51.908;7.730;2023-03-18T02:58:34;0.50;;;0.50;;
13708;SDS011;54933;51.908;7.730;2023-03-18T03:01:02;0.93;;;0.50;;
13708;SDS011;54933;51.908;7.730;2023-03-18T03:03:28;0.30;;;0.30;;
13708;SDS011;54933;51.908;7.730;2023-03-18T03:05:53;0.50;;;0.50;;
13708;SDS011;54933;51.908;7.730;2023-03-18T03:08:20;0.60;;;0.60;;
13708;SDS011;54933;51.908;7.730;2023-03-18T03:10:46;0.80;;;0.57;;
13708;SDS011;54933;51.908;7.730;2023-03-18T03:13:11;0.60;;;0.60;;
13708;SDS011;54933;51.908;7.730;2023-03-18T03:15:38;0.70;;;0.60;;
13708;SDS011;54933;51.908;7.730;2023-03-18T03:18:04;1.00;;;0.50;;
13708;SDS011;54933;51.908;7.730;2023-03-18T03:20:31;0.60;;;0.60;;
13708;SDS011;54933;51.908;7.730;2023-03-18T03:22:59;0.40;;;0.40;;
13708;SDS011;54933;51.908;7.730;2023-03-18T03:25:26;0.50;;;0.50;;
13708;SDS011;54933;51.908;7.730;2023-03-18T03:27:52;0.60;;;0.60;;
13708;SDS011;54933;51.908;7.730;2023-03-18T03:30:18;1.43;;;0.77;;
13708;SDS011;54933;51.908;7.730;2023-03-18T03:32:44;0.37;;;0.37;;
13708;SDS011;54933;51.908;7.730;2023-03-18T03:35:13;2.10;;;0.40;;
13708;SDS011;54933;51.908;7.730;2023-03-18T03:37:41;0.37;;;0.37;;
13708;SDS011;54933;51.908;7.730;2023-03-18T03:40:08;0.40;;;0.40;;
13708;SDS011;54933;51.908;7.730;2023-03-18T03:42:34;1.30;;;0.70;;
13708;SDS011;54933;51.908;7.730;2023-03-18T03:45:00;0.50;;;0.50;;
13708;SDS011;54933;51.908;7.730;2023-03-18T03:47:25;0.47;;;0.43;;
13708;SDS011;54933;51.908;7.730;2023-03-18T03:49:50;0.57;;;0.57;;
13708;SDS011;54933;51.908;7.730;2023-03-18T03:52:16;0.83;;;0.60;;
13708;SDS011;54933;51.908;7.730;2023-03-18T03:54:43;0.87;;;0.50;;
13708;SDS011;54933;51.908;7.730;2023-03-18T03:57:09;0.50;;;0.40;;
13708;SDS011;54933;51.908;7.730;2023-03-18T03:59:34;0.60;;;0.60;;
13708;SDS011;54933;51.908;7.730;2023-03-18T04:01:59;0.70;;;0.70;;
13708;SDS011;54933;51.908;7.730;2023-03-18T04:04:25;0.93;;;0.47;;
13708;SDS011;54933;51.908;7.730;2023-03-18T04:06:50;0.57;;;0.57;;
13708;SDS011;54933;51.908;7.730;2023-03-18T04:09:15;0.40;;;0.40;;
13708;SDS011;54933;51.908;7.730;2023-03-18T04:11:41;0.53;;;0.50;;
13708;SDS011;54933;51.908;7.730;2023-03-18T04:14:08;1.57;;;0.40;;
13708;SDS011;54933;51.908;7.730;2023-03-18T04:16:33;0.73;;;0.53;;
13708;SDS011;54933;51.908;7.730;2023-03-18T04:18:59;0.43;;;0.43;;
13708;SDS011;54933;51.908;7.730;2023-03-18T04:21:24;0.50;;;0.50;;
13708;SDS011;54933;51.908;7.730;2023-03-18T04:23:49;1.37;;;0.50;;
13708;SDS011;54933;51.908;7.730;2023-03-18T04:26:14;0.90;;;0.53;;
13708;SDS011;54933;51.908;7.730;2023-03-18T04:28:40;0.40;;;0.40;;
13708;SDS011;54933;51.908;7.730;2023-03-18T04:31:05;0.50;;;0.50;;
13708;SDS011;54933;51.908;7.730;2023-03-18T04:33:30;0.57;;;0.57;;
13708;SDS011;54933;51.908;7.730;2023-03-18T04:35:56;0.47;;;0.47;;
13708;SDS011;54933;51.908;7.730;2023-03-18T04:38:22;0.60;;;0.60;;
13708;SDS011;54933;51.908;7.730;2023-03-18T04:40:47;0.50;;;0.50;;
13708;SDS011;54933;51.908;7.730;2023-03-18T04:43:12;0.90;;;0.50;;
13708;SDS011;54933;51.908;7.730;2023-03-18T04:45:38;0.40;;;0.40;;
13708;SDS011;54933;51.908;7.730;2023-03-18T04:48:03;0.47;;;0.47;;
13708;SDS011;54933;51.908;7.730;2023-03-18T04:50:29;0.27;;;0.27;;
13708;SDS011;54933;51.908;7.730;2023-03-18T04:52:55;0.40;;;0.40;;
13708;SDS011;54933;51.908;7.730;2023-03-18T04:55:21;0.40;;;0.40;;
13708;SDS011;54933;51.908;7.730;2023-03-18T04:57:46;0.63;;;0.50;;
13708;SDS011;54933;51.908;7.730;2023-03-18T05:00:17;0.90;;;0.60;;
13708;SDS011;54933;51.908;7.730;2023-03-18T05:02:46;0.33;;;0.33;;
13708;SDS011;54933;51.908;7.730;2023-03-18T05:05:11;0.30;;;0.30;;
13708;SDS011;54933;51.908;7.730;2023-03-18T05:07:37;1.00;;;0.67;;
13708;SDS011;54933;51.908;7.730;2023-03-18T05:10:03;0.53;;;0.53;;
13708;SDS011;54933;51.908;7.730;2023-03-18T05:12:31;0.50;;;0.50;;
13708;SDS011;54933;51.908;7.730;2023-03-18T05:14:56;0.50;;;0.50;;
13708;SDS011;54933;51.908;7.730;2023-03-18T05:17:22;0.70;;;0.70;;
13708;SDS011;54933;51.908;7.730;2023-03-18T05:19:47;0.30;;;0.30;;
13708;SDS011;54933;51.908;7.730;2023-03-18T05:22:14;0.77;;;0.57;;
13708;SDS011;54933;51.908;7.730;2023-03-18T05:24:41;0.67;;;0.40;;
13708;SDS011;54933;51.908;7.730;2023-03-18T05:27:07;0.33;;;0.33;;
13708;SDS011;54933;51.908;7.730;2023-03-18T05:29:34;0.40;;;0.40;;
13708;SDS011;54933;51.908;7.730;2023-03-18T05:32:02;0.37;;;0.37;;
13708;SDS011;54933;51.908;7.730;2023-03-18T05:34:28;0.50;;;0.50;;
13708;SDS011;54933;51.908;7.730;2023-03-18T05:36:53;0.40;;;0.40;;
13708;SDS011;54933;51.908;7.730;2023-03-18T05:39:19;0.53;;;0.40;;
13708;SDS011;54933;51.908;7.730;2023-03-18T05:41:44;0.30;;;0.30;;
13708;SDS011;54933;51.908;7.730;2023-03-18T05:44:09;0.27;;;0.27;;
13708;SDS011;54933;51.908;7.730;2023-03-18T05:46:35;0.97;;;0.60;;
13708;SDS011;54933;51.908;7.730;2023-03-18T05:49:00;1.60;;;0.50;;
13708;SDS011;54933;51.908;7.730;2023-03-18T05:51:26;3.03;;;0.60;;
13708;SDS011;54933;51.908;7.730;2023-03-18T05:53:51;0.30;;;0.30;;
13708;SDS011;54933;51.908;7.730;2023-03-18T05:56:17;5.93;;;0.60;;
13708;SDS011;54933;51.908;7.730;2023-03-18T05:58:42;0.40;;;0.40;;
13708;SDS011;54933;51.908;7.730;2023-03-18T06:01:08;0.50;;;0.50;;
13708;SDS011;54933;51.908;7.730;2023-03-18T06:03:33;0.50;;;0.50;;
13708;SDS011;54933;51.908;7.730;2023-03-18T06:06:00;0.30;;;0.30;;
13708;SDS011;54933;51.908;7.730;2023-03-18T06:08:25;0.40;;;0.40;;
13708;SDS011;54933;51.908;7.730;2023-03-18T06:10:51;0.57;;;0.33;;
13708;SDS011;54933;51.908;7.730;2023-03-18T06:13:17;0.20;;;0.20;;
13708;SDS011;54933;51.908;7.730;2023-03-18T06:15:42;0.50;;;0.50;;
13708;SDS011;54933;51.908;7.730;2023-03-18T06:18:07;0.67;;;0.50;;
13708;SDS011;54933;51.908;7.730;2023-03-18T06:20:33;0.33;;;0.33;;
13708;SDS011;54933;51.908;7.730;2023-03-18T06:22:59;1.47;;;0.90;;
13708;SDS011;54933;51.908;7.730;2023-03-18T06:25:24;0.60;;;0.60;;
13708;SDS011;54933;51.908;7.730;2023-03-18T06:27:50;0.40;;;0.40;;
13708;SDS011;54933;51.908;7.730;2023-03-18T06:30:16;0.93;;;0.43;;
13708;SDS011;54933;51.908;7.730;2023-03-18T06:32:42;0.50;;;0.50;;
13708;SDS011;54933;51.908;7.730;2023-03-18T06:35:08;0.50;;;0.50;;
13708;SDS011;54933;51.908;7.730;2023-03-18T06:37:35;0.47;;;0.47;;
13708;SDS011;54933;51.908;7.730;2023-03-18T06:40:01;0.47;;;0.47;;
13708;SDS011;54933;51.908;7.730;2023-03-18T06:42:27;0.30;;;0.30;;
13708;SDS011;54933;51.908;7.730;2023-03-18T06:44:52;0.40;;;0.40;;
13708;SDS011;54933;51.908;7.730;2023-03-18T06:47:19;0.50;;;0.50;;
13708;SDS011;54933;51.908;7.730;2023-03-18T06:49:46;0.40;;;0.40;;
13708;SDS011;54933;51.908;7.730;2023-03-18T06:52:12;1.53;;;0.57;;
13708;SDS011;54933;51.908;7.730;2023-03-18T06:54:38;0.27;;;0.27;;
13708;SDS011;54933;51.908;7.730;2023-03-18T06:57:04;0.60;;;0.60;;
13708;SDS011;54933;51.908;7.730;2023-03-18T06:59:30;0.50;;;0.50;;
13708;SDS011;54933;51.908;7.730;2023-03-18T07:01:55;0.90;;;0.60;;
13708;SDS011;54933;51.908;7.730;2023-03-18T07:04:21;0.40;;;0.40;;
13708;SDS011;54933;51.908;7.730;2023-03-18T07:06:47;0.50;;;0.50;;
13708;SDS011;54933;51.908;7.730;2023-03-18T07:09:13;0.40;;;0.40;;
13708;SDS011;54933;51.908;7.730;2023-03-18T07:11:39;0.67;;;0.50;;
13708;SDS011;54933;51.908;7.730;2023-03-18T07:14:04;0.50;;;0.50;;
13708;SDS011;54933;51.908;7.730;2023-03-18T07:16:30;0.50;;;0.50;;
13708;SDS011;54933;51.908;7.730;2023-03-18T07:18:55;0.43;;;0.43;;
13708;SDS011;54933;51.908;7.730;2023-03-18T07:21:23;0.40;;;0.40;;
13708;SDS011;54933;51.908;7.730;2023-03-18T07:23:48;0.23;;;0.23;;
13708;SDS011;54933;51.908;7.730;2023-03-18T07:26:13;0.40;;;0.40;;
13708;SDS011;54933;51.908;7.730;2023-03-18T07:28:39;0.50;;;0.50;;
13708;SDS011;54933;51.908;7.730;2023-03-18T07:31:04;0.40;;;0.40;;
13708;SDS011;54933;51.908;7.730;2023-03-18T07:33:30;0.43;;;0.43;;
13708;SDS011;54933;51.908;7.730;2023-03-18T07:35:56;0.50;;;0.30;;
13708;SDS011;54933;51.908;7.730;2023-03-18T07:38:21;1.10;;;0.50;;
13708;SDS011;54933;51.908;7.730;2023-03-18T07:40:47;0.70;;;0.70;;
13708;SDS011;54933;51.908;7.730;2023-03-18T07:43:13;0.60;;;0.57;;
13708;SDS011;54933;51.908;7.730;2023-03-18T07:45:38;0.47;;;0.47;;
13708;SDS011;54933;51.908;7.730;2023-03-18T07:48:03;0.50;;;0.50;;
13708;SDS011;54933;51.908;7.730;2023-03-18T07:50:29;0.53;;;0.53;;
13708;SDS011;54933;51.908;7.730;2023-03-18T07:52:54;0.80;;;0.30;;
13708;SDS011;54933;51.908;7.730;2023-03-18T07:55:21;0.50;;;0.50;;
13708;SDS011;54933;51.908;7.730;2023-03-18T07:57:46;0.47;;;0.47;;
13708;SDS011;54933;51.908;7.730;2023-03-18T08:00:11;0.50;;;0.50;;
13708;SDS011;54933;51.908;7.730;2023-03-18T08:02:38;0.43;;;0.43;;
13708;SDS011;54933;51.908;7.730;2023-03-18T08:05:03;0.40;;;0.40;;
13708;SDS011;54933;51.908;7.730;2023-03-18T08:07:31;0.60;;;0.60;;
13708;SDS011;54933;51.908;7.730;2023-03-18T08:09:57;3.10;;;0.67;;
13708;SDS011;54933;51.908;7.730;2023-03-18T08:12:23;0.70;;;0.50;;
13708;SDS011;54933;51.908;7.730;2023-03-18T08:14:49;0.70;;;0.70;;
13708;SDS011;54933;51.908;7.730;2023-03-18T08:17:14;1.53;;;1.43;;
13708;SDS011;54933;51.908;7.730;2023-03-18T08:19:40;1.80;;;0.60;;
13708;SDS011;54933;51.908;7.730;2023-03-18T08:22:05;0.33;;;0.33;;
13708;SDS011;54933;51.908;7.730;2023-03-18T08:24:32;0.30;;;0.30;;
13708;SDS011;54933;51.908;7.730;2023-03-18T08:26:57;0.50;;;0.50;;
13708;SDS011;54933;51.908;7.730;2023-03-18T08:29:23;0.67;;;0.50;;
13708;SDS011;54933;51.908;7.730;2023-03-18T08:31:48;1.93;;;0.50;;
13708;SDS011;54933;51.908;7.730;2023-03-18T08:34:13;0.30;;;0.30;;
13708;SDS011;54933;51.908;7.730;2023-03-18T08:36:39;0.67;;;0.63;;
13708;SDS011;54933;51.908;7.730;2023-03-18T08:39:06;10.53;;;2.23;;
13708;SDS011;54933;51.908;7.730;2023-03-18T08:41:33;3.57;;;1.30;;
13708;SDS011;54933;51.908;7.730;2023-03-18T08:44:00;70.63;;;6.23;;
13708;SDS011;54933;51.908;7.730;2023-03-18T08:46:25;33.60;;;3.53;;
13708;SDS011;54933;51.908;7.730;2023-03-18T08:48:51;27.07;;;2.77;;
13708;SDS011;54933;51.908;7.730;2023-03-18T08:51:18;28.73;;;2.60;;
13708;SDS011;54933;51.908;7.730;2023-03-18T08:53:43;26.97;;;3.23;;
13708;SDS011;54933;51.908;7.730;2023-03-18T08:56:09;16.40;;;2.17;;
13708;SDS011;54933;51.908;7.730;2023-03-18T08:58:35;8.10;;;2.30;;
13708;SDS011;54933;51.908;7.730;2023-03-18T09:01:00;24.47;;;2.90;;
13708;SDS011;54933;51.908;7.730;2023-03-18T09:03:29;56.77;;;9.27;;
13708;SDS011;54933;51.908;7.730;2023-03-18T09:05:54;19.10;;;5.80;;
13708;SDS011;54933;51.908;7.730;2023-03-18T09:08:20;33.93;;;6.00;;
13708;SDS011;54933;51.908;7.730;2023-03-18T09:10:46;17.93;;;4.73;;
13708;SDS011;54933;51.908;7.730;2023-03-18T09:13:11;14.67;;;4.07;;
13708;SDS011;54933;51.908;7.730;2023-03-18T09:15:37;17.37;;;3.70;;
13708;SDS011;54933;51.908;7.730;2023-03-18T09:18:03;30.13;;;4.37;;
13708;SDS011;54933;51.908;7.730;2023-03-18T09:20:29;14.20;;;3.50;;
13708;SDS011;54933;51.908;7.730;2023-03-18T09:22:56;14.70;;;3.53;;
13708;SDS011;54933;51.908;7.730;2023-03-18T09:25:22;11.57;;;3.10;;
13708;SDS011;54933;51.908;7.730;2023-03-18T09:27:48;15.07;;;2.93;;
13708;SDS011;54933;51.908;7.730;2023-03-18T09:30:13;15.27;;;2.97;;
13708;SDS011;54933;51.908;7.730;2023-03-18T09:32:39;13.47;;;2.83;;
13708;SDS011;54933;51.908;7.730;2023-03-18T09:35:05;9.77;;;2.40;;
13708;SDS011;54933;51.908;7.730;2023-03-18T09:37:31;8.50;;;2.53;;
13708;SDS011;54933;51.908;7.730;2023-03-18T09:39:56;18.40;;;2.07;;
13708;SDS011;54933;51.908;7.730;2023-03-18T09:44:53;10.80;;;3.07;;
13708;SDS011;54933;51.908;7.730;2023-03-18T09:57:46;2.73;;;1.93;;
13708;SDS011;54933;51.908;7.730;2023-03-18T10:02:57;251.13;;;19.67;;
13708;SDS011;54933;51.908;7.730;2023-03-18T10:11:09;57.60;;;8.30;;
13708;SDS011;54933;51.908;7.730;2023-03-18T10:13:46;58.07;;;6.97;;
13708;SDS011;54933;51.908;7.730;2023-03-18T10:16:22;50.20;;;5.87;;
13708;SDS011;54933;51.908;7.730;2023-03-18T10:18:52;46.27;;;5.30;;
13708;SDS011;54933;51.908;7.730;2023-03-18T10:23:54;50.30;;;4.80;;
13708;SDS011;54933;51.908;7.730;2023-03-18T10:26:29;39.67;;;4.17;;
13708;SDS011;54933;51.908;7.730;2023-03-18T10:29:22;26.07;;;4.27;;
13708;SDS011;54933;51.908;7.730;2023-03-18T10:34:56;24.33;;;3.60;;
13708;SDS011;54933;51.908;7.730;2023-03-18T10:40:20;32.83;;;3.27;;
13708;SDS011;54933;51.908;7.730;2023-03-18T10:42:48;24.43;;;2.67;;
13708;SDS011;54933;51.908;7.730;2023-03-18T10:47:57;30.23;;;3.00;;
13708;SDS011;54933;51.908;7.730;2023-03-18T10:50:35;26.83;;;3.03;;
13708;SDS011;54933;51.908;7.730;2023-03-18T10:53:10;33.40;;;4.13;;
13708;SDS011;54933;51.908;7.730;2023-03-18T10:56:04;9.63;;;2.13;;
13708;SDS011;54933;51.908;7.730;2023-03-18T10:58:32;22.13;;;2.40;;
13708;SDS011;54933;51.908;7.730;2023-03-18T11:00:57;43.27;;;4.47;;
13708;SDS011;54933;51.908;7.730;2023-03-18T11:03:25;92.73;;;7.27;;
13708;SDS011;54933;51.908;7.730;2023-03-18T11:05:53;39.70;;;4.10;;
13708;SDS011;54933;51.908;7.730;2023-03-18T11:11:31;21.97;;;3.27;;
13708;SDS011;54933;51.908;7.730;2023-03-18T11:13:58;18.00;;;2.33;;
13708;SDS011;54933;51.908;7.730;2023-03-18T11:22:03;9.93;;;1.90;;
13708;SDS011;54933;51.908;7.730;2023-03-18T11:25:10;47.57;;;6.20;;
13708;SDS011;54933;51.908;7.730;2023-03-18T11:27:40;56.17;;;5.67;;
13708;SDS011;54933;51.908;7.730;2023-03-18T11:30:24;3.83;;;1.87;;
13708;SDS011;54933;51.908;7.730;2023-03-18T11:32:54;8.57;;;1.63;;
13708;SDS011;54933;51.908;7.730;2023-03-18T11:35:23;4.17;;;1.90;;
13708;SDS011;54933;51.908;7.730;2023-03-18T11:38:11;6.80;;;1.73;;
13708;SDS011;54933;51.908;7.730;2023-03-18T11:40:39;2.77;;;1.50;;
13708;SDS011;54933;51.908;7.730;2023-03-18T11:43:16;1.73;;;1.40;;
13708;SDS011;54933;51.908;7.730;2023-03-18T11:45:47;4.47;;;1.23;;
13708;SDS011;54933;51.908;7.730;2023-03-18T11:51:09;3.70;;;1.10;;
13708;SDS011;54933;51.908;7.730;2023-03-18T11:56:53;2.53;;;1.10;;
13708;SDS011;54933;51.908;7.730;2023-03-18T12:02:17;4.73;;;0.90;;
13708;SDS011;54933;51.908;7.730;2023-03-18T12:10:39;2.57;;;0.73;;
13708;SDS011;54933;51.908;7.730;2023-03-18T12:32:23;5.53;;;0.80;;
13708;SDS011;54933;51.908;7.730;2023-03-18T12:45:44;3.33;;;1.00;;
13708;SDS011;54933;51.908;7.730;2023-03-18T12:48:15;0.83;;;0.70;;
13708;SDS011;54933;51.908;7.730;2023-03-18T12:50:46;3.70;;;0.93;;
13708;SDS011;54933;51.908;7.730;2023-03-18T12:54:04;2.37;;;1.00;;
13708;SDS011;54933;51.908;7.730;2023-03-18T12:56:11;0.63;;;0.60;;
13708;SDS011;54933;51.908;7.730;2023-03-18T12:58:42;1.13;;;0.90;;
13708;SDS011;54933;51.908;7.730;2023-03-18T13:04:01;4.20;;;0.90;;
13708;SDS011;54933;51.908;7.730;2023-03-18T13:06:44;1.13;;;0.70;;
13708;SDS011;54933;51.908;7.730;2023-03-18T13:09:35;3.47;;;1.57;;
13708;SDS011;54933;51.908;7.730;2023-03-18T13:17:25;13.10;;;1.73;;
13708;SDS011;54933;51.908;7.730;2023-03-18T13:19:59;6.07;;;1.67;;
13708;SDS011;54933;51.908;7.730;2023-03-18T13:22:35;5.30;;;1.00;;
13708;SDS011;54933;51.908;7.730;2023-03-18T13:34:08;2.33;;;1.20;;
13708;SDS011;54933;51.908;7.730;2023-03-18T13:36:54;6.07;;;0.80;;
13708;SDS011;54933;51.908;7.730;2023-03-18T13:44:59;3.17;;;1.00;;
13708;SDS011;54933;51.908;7.730;2023-03-18T13:47:31;4.53;;;1.10;;
13708;SDS011;54933;51.908;7.730;2023-03-18T13:49:59;7.90;;;1.00;;
13708;SDS011;54933;51.908;7.730;2023-03-18T13:52:46;12.57;;;1.73;;
13708;SDS011;54933;51.908;7.730;2023-03-18T13:58:07;3.07;;;0.80;;
13708;SDS011;54933;51.908;7.730;2023-03-18T14:00:41;5.23;;;1.60;;
13708;SDS011;54933;51.908;7.730;2023-03-18T14:11:47;53.60;;;2.97;;
13708;SDS011;54933;51.908;7.730;2023-03-18T14:13:51;35.53;;;2.50;;
13708;SDS011;54933;51.908;7.730;2023-03-18T14:16:23;9.80;;;1.47;;
13708;SDS011;54933;51.908;7.730;2023-03-18T14:21:44;11.27;;;1.50;;
13708;SDS011;54933;51.908;7.730;2023-03-18T14:24:29;13.83;;;1.63;;
13708;SDS011;54933;51.908;7.730;2023-03-18T14:29:44;11.43;;;1.30;;
13708;SDS011;54933;51.908;7.730;2023-03-18T14:34:56;13.20;;;1.80;;
13708;SDS011;54933;51.908;7.730;2023-03-18T14:37:24;14.10;;;1.37;;
13708;SDS011;54933;51.908;7.730;2023-03-18T14:39:50;5.87;;;1.03;;
13708;SDS011;54933;51.908;7.730;2023-03-18T14:44:59;5.67;;;1.20;;
13708;SDS011;54933;51.908;7.730;2023-03-18T14:47:36;2.27;;;0.90;;
13708;SDS011;54933;51.908;7.730;2023-03-18T14:56:02;10.73;;;1.33;;
13708;SDS011;54933;51.908;7.730;2023-03-18T14:58:28;12.67;;;1.30;;
13708;SDS011;54933;51.908;7.730;2023-03-18T15:01:01;6.33;;;1.27;;
13708;SDS011;54933;51.908;7.730;2023-03-18T15:03:30;22.93;;;1.83;;
13708;SDS011;54933;51.908;7.730;2023-03-18T15:05:58;5.03;;;1.00;;
13708;SDS011;54933;51.908;7.730;2023-03-18T15:08:33;1.37;;;0.90;;
13708;SDS011;54933;51.908;7.730;2023-03-18T15:11:01;8.90;;;1.03;;
13708;SDS011;54933;51.908;7.730;2023-03-18T15:13:34;5.80;;;1.03;;
13708;SDS011;54933;51.908;7.730;2023-03-18T15:16:02;6.07;;;1.10;;
13708;SDS011;54933;51.908;7.730;2023-03-18T15:18:29;2.97;;;0.90;;
13708;SDS011;54933;51.908;7.730;2023-03-18T15:20:59;2.97;;;1.10;;
13708;SDS011;54933;51.908;7.730;2023-03-18T15:23:36;58.43;;;5.90;;
13708;SDS011;54933;51.908;7.730;2023-03-18T15:26:07;11.07;;;1.30;;
13708;SDS011;54933;51.908;7.730;2023-03-18T15:28:47;8.03;;;1.13;;
13708;SDS011;54933;51.908;7.730;2023-03-18T15:31:21;17.80;;;1.53;;
13708;SDS011;54933;51.908;7.730;2023-03-18T15:36:49;43.60;;;3.70;;
13708;SDS011;54933;51.908;7.730;2023-03-18T15:42:22;27.80;;;2.17;;
13708;SDS011;54933;51.908;7.730;2023-03-18T15:44:52;25.93;;;3.07;;
13708;SDS011;54933;51.908;7.730;2023-03-18T15:47:26;31.33;;;3.03;;
13708;SDS011;54933;51.908;7.730;2023-03-18T15:49:54;36.57;;;2.80;;
13708;SDS011;54933;51.908;7.730;2023-03-18T15:52:31;27.00;;;3.37;;
13708;SDS011;54933;51.908;7.730;2023-03-18T15:54:58;27.43;;;2.90;;
13708;SDS011;54933;51.908;7.730;2023-03-18T15:57:43;21.10;;;2.03;;
13708;SDS011;54933;51.908;7.730;2023-03-18T16:00:08;40.50;;;4.70;;
13708;SDS011;54933;51.908;7.730;2023-03-18T16:02:35;19.57;;;2.27;;
13708;SDS011;54933;51.908;7.730;2023-03-18T16:05:18;115.77;;;7.93;;
13708;SDS011;54933;51.908;7.730;2023-03-18T16:07:49;43.13;;;4.67;;
13708;SDS011;54933;51.908;7.730;2023-03-18T16:10:16;117.20;;;8.10;;
13708;SDS011;54933;51.908;7.730;2023-03-18T16:12:46;104.53;;;5.90;;
13708;SDS011;54933;51.908;7.730;2023-03-18T16:15:16;44.00;;;5.17;;
13708;SDS011;54933;51.908;7.730;2023-03-18T16:17:46;38.70;;;3.90;;
13708;SDS011;54933;51.908;7.730;2023-03-18T16:20:16;15.90;;;3.03;;
13708;SDS011;54933;51.908;7.730;2023-03-18T16:22:44;27.13;;;2.17;;
13708;SDS011;54933;51.908;7.730;2023-03-18T16:25:10;28.13;;;2.03;;
13708;SDS011;54933;51.908;7.730;2023-03-18T16:27:37;16.80;;;1.83;;
13708;SDS011;54933;51.908;7.730;2023-03-18T16:30:05;20.90;;;1.90;;
13708;SDS011;54933;51.908;7.730;2023-03-18T16:32:39;11.70;;;2.10;;
13708;SDS011;54933;51.908;7.730;2023-03-18T16:35:05;10.30;;;1.87;;
13708;SDS011;54933;51.908;7.730;2023-03-18T16:37:31;20.60;;;2.13;;
13708;SDS011;54933;51.908;7.730;2023-03-18T16:39:56;13.37;;;1.70;;
13708;SDS011;54933;51.908;7.730;2023-03-18T16:42:22;7.43;;;1.30;;
13708;SDS011;54933;51.908;7.730;2023-03-18T16:44:48;24.47;;;1.73;;
13708;SDS011;54933;51.908;7.730;2023-03-18T16:47:24;63.20;;;4.60;;
13708;SDS011;54933;51.908;7.730;2023-03-18T16:49:51;14.20;;;1.80;;
13708;SDS011;54933;51.908;7.730;2023-03-18T16:52:17;33.87;;;3.30;;
13708;SDS011;54933;51.908;7.730;2023-03-18T16:54:43;26.57;;;3.20;;
13708;SDS011;54933;51.908;7.730;2023-03-18T16:57:14;39.87;;;4.17;;
13708;SDS011;54933;51.908;7.730;2023-03-18T16:59:43;17.70;;;2.53;;
13708;SDS011;54933;51.908;7.730;2023-03-18T17:04:58;29.57;;;3.30;;
13708;SDS011;54933;51.908;7.730;2023-03-18T17:07:25;17.60;;;1.97;;
13708;SDS011;54933;51.908;7.730;2023-03-18T17:09:51;33.93;;;2.73;;
13708;SDS011;54933;51.908;7.730;2023-03-18T17:12:17;21.03;;;2.30;;
13708;SDS011;54933;51.908;7.730;2023-03-18T17:14:46;25.83;;;2.57;;
13708;SDS011;54933;51.908;7.730;2023-03-18T17:17:24;20.77;;;2.93;;
13708;SDS011;54933;51.908;7.730;2023-03-18T17:19:52;23.17;;;2.83;;